Flight Track Log - Related Links

Times and Time Zones

All times are in EDT time to prevent confusion due to time zone crossing. See the USC105 flight status page for this flight to view local times or setup timezone preferences in your user account.

Time Position Orientation Groundspeed Altitude Reporting Facility
EDT Latitude Longitude Course Direction KTS MPH feet Rate Location/Type
Wed 06:43:58 AM 42.1978 -83.5908 227° Southwest 138 159 2,500  Level Cleveland Center
Wed 06:44:59 AM 42.1658 -83.6200 214° Southwest 131 151 3,700 1,140 Climbing Cleveland Center
Wed 06:45:59 AM 42.1400 -83.6525 223° Southwest 133 153 4,800 1,091 Climbing Cleveland Center
Wed 06:47:00 AM 42.0983 -83.6419 169° South 149 171 5,900 1,091 Climbing Cleveland Center
Wed 06:48:00 AM 41.9829 -83.4415 160° South  Level FlightAware Approximate
Wed 06:48:00 AM 42.0569 -83.6317 170° South 153 176 7,000  Level Cleveland Center
Wed 06:49:01 AM 42.0033 -83.6122 165° South 197 227 7,000  Level Cleveland Center
Wed 06:50:02 AM 41.9517 -83.5986 169° South 197 227 7,000  Level Cleveland Center
Wed 06:51:02 AM 41.8958 -83.5792 165° South 208 239 7,000  Level Cleveland Center
Wed 06:53:00 AM 41.8399 -83.4647 123° Southeast  Level FlightAware Approximate
Wed 07:00:00 AM 41.4842 -83.3680 170° South  Level Estimated
Wed 07:01:00 AM 41.4346 -83.3483 163° South  Level FlightAware Approximate
Wed 07:02:00 AM 41.3849 -83.3285 163° South  Level FlightAware Approximate
Wed 07:03:00 AM 41.3352 -83.3088 163° South  Level FlightAware Approximate
Wed 07:04:00 AM 41.2855 -83.2892 163° South  Level FlightAware Approximate
Wed 07:05:00 AM 41.2358 -83.2695 163° South  Level FlightAware Approximate
Wed 07:06:00 AM 41.1861 -83.2499 163° South  Level FlightAware Approximate
Wed 07:07:00 AM 41.1364 -83.2304 163° South  Level FlightAware Approximate
Wed 07:08:00 AM 41.0867 -83.2108 163° South  Level FlightAware Approximate
Wed 07:09:00 AM 41.0356 -83.1992 170° South  Level Estimated
Wed 07:09:21 AM 40.8533 -83.2458 169° South 207 238 7,000  Level Indianapolis Center
Wed 07:10:00 AM 40.9846 -83.1865 169° South  Level FlightAware Approximate
Wed 07:10:22 AM 40.7958 -83.2272 166° South 209 241 7,000  Level Indianapolis Center
Wed 07:11:00 AM 40.9337 -83.1738 169° South  Level FlightAware Approximate
Wed 07:11:23 AM 40.7406 -83.2111 168° South 207 238 7,000  Level Indianapolis Center
Wed 07:12:00 AM 40.8828 -83.1611 169° South  Level FlightAware Approximate
Wed 07:12:25 AM 40.6833 -83.1933 167° South 210 242 7,000  Level Indianapolis Center
Wed 07:13:00 AM 40.8318 -83.1485 169° South  Level FlightAware Approximate
Wed 07:13:26 AM 40.6253 -83.1747 166° South 211 243 7,000  Level Indianapolis Center
Wed 07:14:00 AM 40.7808 -83.1358 169° South  Level FlightAware Approximate
Wed 07:14:27 AM 40.5678 -83.1564 166° South 208 239 7,000  Level Indianapolis Center
Wed 07:15:28 AM 40.5131 -83.1406 168° South 205 236 7,000  Level Indianapolis Center
Wed 07:16:29 AM 40.4575 -83.1233 167° South 203 234 7,000  Level Indianapolis Center
Wed 07:16:50 AM 40.4342 -83.1186 171° South 203 234 7,000  Level Indianapolis Center
Wed 07:17:30 AM 40.4025 -83.1078 165° South 201 231 7,000  Level Indianapolis Center
Wed 07:18:32 AM 40.3472 -83.0861 163° South 202 232 7,000  Level Indianapolis Center
Wed 07:18:51 AM 40.3267 -83.0703 150° Southeast 209 241 7,000  Level Indianapolis Center
Wed 07:19:33 AM 40.2989 -83.0422 142° Southeast 206 237 7,000  Level Indianapolis Center
Wed 07:20:34 AM 40.2478 -83.0022 149° Southeast 210 242 7,000  Level Indianapolis Center
Wed 07:21:35 AM 40.1986 -82.9614 148° Southeast 207 238 7,000  Level Indianapolis Center
Wed 07:22:36 AM 40.1489 -82.9217 149° Southeast 207 238 7,000 -244 Level Indianapolis Center
Wed 07:23:38 AM 40.1003 -82.8814 148° Southeast 206 237 6,500 -780 Descending Indianapolis Center
Wed 07:24:39 AM 40.0447 -82.8478 155° Southeast 219 252 5,400 -1,279 Descending Indianapolis Center
Wed 07:25:40 AM 39.9847 -82.8350 171° South 217 250 3,900 -1,171 Descending Indianapolis Center
Wed 07:26:42 AM 39.9250 -82.8519 192° South 218 251 3,000 -976 Descending Indianapolis Center
Wed 07:27:43 AM 39.8717 -82.8728 197° South 207 238 1,900 -934 Descending Indianapolis Center
Wed 07:28:44 AM 39.8328 -82.9036 211° Southwest 160 184 1,100 -492 Descending Indianapolis Center
Wed 07:29:45 AM 39.8097 -82.9353 227° Southwest 153 176 900 -197 Descending Indianapolis Center
Wed 07:31:00 AM 39.8138 -82.9278 199° South  Level Estimated

Login

Don't have an account? Register now (free) for customized features, flight alerts, and more!